West Mansfield, Ohio
Current Conditions -  °F | °C
As of 8:30 AM on Wednesday 22 Oct 2014 (Local Time) from KEDJ Reporting Station
Overcast Overcast  
Wind Chill:   Ceiling: 600
Heat Index:   Visibility: 6mi
Dew Point:   Wind: 7mph
Humidity: 100%   Direction: 340°NNW
Pressure: 30.28"   Gusts: NA
Location:  40.4°N, 83.55°W
Report Text: KEDJ 221230Z AUTO 34006KT 6SM OVC006 05/05 A3028 RMK AO1
Loading
Personal Weather Stations






























Interactive Weather Map
Tropical Storm Tracking
New forecast layout! Learn more

10-Day Weather Forecast

Advertisements
Track Severe Weather on mobile